Oscar Dyson — WTEP — position and weather

sailwx.info

Track history (hours):
 
Tides and Currents Weather Stations Pressure Air Temp Water Temp Dewpoint Dewpoint Depression Visibility Wind Speed Wind Dir Waves Ship Positions

Oceanographic research ship Oscar Dyson (USA)

Ship's website: http://www.moc.noaa.gov/od/

Detailed information on ship capabilities available from University of Delaware's Ocean Information Center and ARCUS's ALIAS (Arctic Logistics Information and Support) project.

Last reported at 2017-Feb-16 16:00 UTC. Time now 2017-Feb-23 00:20 UTC.
Position N 57°42' W 152°24'.

Type: Ship. MMSI: 369959000.

Wind from 180 at 16 knots

Barometer 978.2 mb
Air temperature 2.4 ° C
Dewpoint -1.1 ° C
Water temperature 4.0 ° C

Date/timePositionNaut miles runAvg speedWind from/ knotsBaromVisibWave heightAir tempDewpointWater temp
2017-Feb-16 16:00N 57°42' W 152°24'311.3 180 / 16978.2 2.4-1.1 4.0
2017-Feb-16 15:43N 57°42' W 152°18'3 4.5 170 / 12 2.2 4.0
2017-Feb-16 15:00N 57°42' W 152°24'312.0 200 / 13977.9 2.2-1.2 4.0
2017-Feb-16 14:44N 57°42' W 152°18'3 4.4 200 / 17 2.2 4.1
2017-Feb-16 14:00N 57°42' W 152°24'312.0 200 / 14977.4 3.1-2.3 4.1
2017-Feb-16 13:44N 57°42' W 152°18'3 4.4 200 / 10 2.8 4.1
2017-Feb-16 13:00N 57°42' W 152°24'312.8 190 / 9977.2 1.8 0.9 4.2
2017-Feb-16 12:45N 57°42' W 152°18'3 4.3 190 / 11 1.6 4.1
2017-Feb-16 12:00N 57°42' W 152°24'313.7 170 / 13976.9 0.7-0.0 4.0
2017-Feb-16 11:46N 57°42' W 152°18'6 7.8 190 / 12 0.6 4.0
2017-Feb-16 11:00N 57°48' W 152°18'314.8 160 / 20977.0 0.8-0.0 4.6
2017-Feb-16 10:47N 57°48' W 152°12'7 8.7 180 / 17 0.9 4.6
2017-Feb-16 10:00N 57°54' W 152°18'315.9 140 / 31977.1 3.0 1.5 4.8
2017-Feb-16 09:48N 57°54' W 152°12'910.9 140 / 31 2.8 4.7
2017-Feb-16 09:00N 58°00' W 152°24'0 0.0 140 / 30976.6 2.8 1.0 4.6
2017-Feb-16 08:48N 58°00' W 152°24'6 7.9 130 / 33 2.9 4.6
2017-Feb-16 08:00N 58°00' W 152°36'632.7 130 / 31976.2 1.4 0.6 4.3
2017-Feb-16 07:49N 57°54' W 152°36'3 3.9 120 / 25 1.1 4.3
2017-Feb-16 07:00N 57°54' W 152°42'0 0.0 130 / 13977.3 1.0-0.3 4.2
2017-Feb-16 06:50N 57°54' W 152°42'1113.5 120 / 15 1.4 4.2
2017-Feb-16 06:00N 58°00' W 153°00'745.3 120 / 20976.6 1.6 0.2 4.0
2017-Feb-16 05:51N 57°54' W 152°54'1113.3 110 / 20 1.6 4.0
2017-Feb-16 05:00N 58°00' W 153°12'321.2 110 / 23976.4 1.2-0.8 4.2
2017-Feb-16 04:51N 58°00' W 153°06'1011.2 110 / 28 1.4 4.2
2017-Feb-16 04:00N 58°00' W 153°24'323.8 100 / 26975.8 1.2-0.1 4.3
2017-Feb-16 03:52N 58°00' W 153°18'1011.0 100 / 26 1.2 4.3
2017-Feb-16 03:00N 58°00' W 153°36'327.3 120 / 20975.8 1.3-1.4 4.5
2017-Feb-16 02:53N 58°00' W 153°30'1010.8 120 / 21 1.4 4.4
2017-Feb-16 02:00N 58°00' W 153°48'767.9 120 / 20975.6 1.3-2.2 3.5
2017-Feb-16 01:54N 57°54' W 153°42'6 7.1 120 / 20 1.3 3.6
2017-Feb-16 01:00N 57°54' W 153°54'338.3 120 / 15976.0 1.8-2.5 4.6
2017-Feb-16 00:55N 57°54' W 153°48'1112.3 120 / 15 1.8 4.6
2017-Feb-16 00:00N 57°48' W 154°06'1111.3 120 / 11975.4 2.1-3.2 4.6
2017-Feb-15 23:00N 57°42' W 154°24'690.0 090 / 16974.8 0.8-1.6 4.6
2017-Feb-15 22:56N 57°36' W 154°24'1112.2 090 / 16 1.0 4.6
2017-Feb-15 22:00N 57°30' W 154°42'0 0.0 120 / 11974.1 0.1-1.2 4.3
2017-Feb-15 21:57N 57°30' W 154°42'1112.0 120 / 9 -0.0 4.3
2017-Feb-15 21:00N 57°24' W 155°00'0 0.0 150 / 27972.5 1.5-0.8 4.8
2017-Feb-15 20:58N 57°24' W 155°00'1111.8 160 / 28 1.5 4.9
2017-Feb-15 20:00N 57°18' W 155°18'6180.0 160 / 20971.9 1.0-2.1 4.5
2017-Feb-15 19:58N 57°12' W 155°18'1111.9 160 / 27 0.5 4.6
2017-Feb-15 19:00N 57°06' W 155°36'3195.5 160 / 11971.4 -0.6-2.2 4.5
2017-Feb-15 18:59N 57°06' W 155°30'1111.7 160 / 9 -0.4 4.5
2017-Feb-15 18:00N 57°00' W 155°48'1615.5 170 / 17970.6 0.5-2.2 4.3
2017-Feb-15 17:00N 56°48' W 156°06'0 0.0 150 / 10970.1 -0.4-2.5 4.3
2017-Feb-15 16:39N 56°48' W 156°06'1217.8 150 / 10 -0.7 4.3
2017-Feb-15 16:00N 56°42' W 156°24'618.0 150 / 9969.7 -2.1-3.5 4.1
2017-Feb-15 15:40N 56°36' W 156°24'1014.9 130 / 13 -1.3 4.1
2017-Feb-15 15:00N 56°36' W 156°42'618.9 160 / 13969.2 -0.1-5.4 4.1
2017-Feb-15 14:41N 56°30' W 156°42'1217.0 150 / 9 -0.2 4.3
2017-Feb-15 14:00N 56°24' W 157°00'0 0.0 150 / 10969.1 -0.2-5.0 4.1
2017-Feb-15 13:41N 56°24' W 157°00'1217.0 170 / 13 -0.2 4.1
2017-Feb-15 13:00N 56°18' W 157°18'620.0 180 / 16968.7 -0.5-4.2 4.1
2017-Feb-15 12:42N 56°12' W 157°18'1014.3 170 / 17 -0.9 4.1
2017-Feb-15 12:00N 56°12' W 157°36'621.2 200 / 14968.2 -2.0-3.3 4.5
2017-Feb-15 11:43N 56°06' W 157°36'1014.0 210 / 14 -2.7 4.1
2017-Feb-15 11:00N 56°06' W 157°54'622.5 130 / 2968.2 -1.8-4.3 4.1
2017-Feb-15 10:44N 56°00' W 157°54'1013.7 200 / 1 -1.9 4.1
2017-Feb-15 10:00N 56°00' W 158°12'624.0 160 / 8968.3 -1.4-6.0 4.1
2017-Feb-15 09:45N 55°54' W 158°12'1215.7 140 / 10 -1.3 4.1
2017-Feb-15 09:00N 55°48' W 158°30'0 0.0 140 / 12968.4 -1.1-6.4 4.1
2017-Feb-15 08:45N 55°48' W 158°30'1215.7 140 / 14 -1.1 4.1
2017-Feb-15 08:00N 55°42' W 158°48'0 0.0 210 / 8968.6 -1.5-5.6 4.1
2017-Feb-15 07:46N 55°42' W 158°48'1013.2 150 / 3 -1.7 4.0
2017-Feb-15 07:00N 55°42' W 159°06'627.7 150 / 12968.4 -2.1-5.6 4.1
2017-Feb-15 06:47N 55°36' W 159°06'1417.3 160 / 13 -1.6 4.1
2017-Feb-15 06:00N 55°36' W 159°30'630.0 270 / 6968.2 -3.2-5.2 4.1
2017-Feb-15 05:48N 55°30' W 159°30'1012.7 280 / 6 -3.7 4.1
2017-Feb-15 05:00N 55°30' W 159°48'0 0.0 130 / 5967.9 -1.8-8.9 4.1
2017-Feb-15 04:48N 55°30' W 159°48'1417.0 160 / 10 -1.7 4.3
2017-Feb-15 04:00N 55°30' W 160°12'0 0.0 140 / 7967.7 -2.1-7.4 4.3
2017-Feb-15 03:49N 55°30' W 160°12'1214.5 180 / 5 -2.2 4.3
2017-Feb-15 03:00N 55°24' W 160°30'0 0.0 210 / 3967.7 -3.5-6.8 4.5
2017-Feb-15 02:50N 55°24' W 160°30'1416.4 170 / 2 -3.4 4.4
2017-Feb-15 02:00N 55°24' W 160°54'746.0 180 / 4967.6 -2.9-8.4 4.1
2017-Feb-15 01:51N 55°18' W 160°48'1416.1 140 / 5 -2.8 4.1
2017-Feb-15 01:00N 55°18' W 161°12'0 0.0 210 / 4967.4 -2.9-10.6 4.0
2017-Feb-15 00:52N 55°18' W 161°12'1011.8 260 / 2 -3.0 4.0
2017-Feb-15 00:00N 55°18' W 161°30'9 9.1 220 / 6967.5 -2.8-8.6 2.7
2017-Feb-14 23:00N 55°24' W 161°42'759.2 210 / 4967.4 -2.7-8.5 2.9
2017-Feb-14 22:53N 55°18' W 161°36'7 7.8 200 / 4 -2.7 2.8
2017-Feb-14 22:00N 55°24' W 161°42'334.1 090 / 3967.7 -3.2-9.2 1.9
2017-Feb-14 21:54N 55°24' W 161°36'0 0.0 090 / 3 -3.3 2.0
2017-Feb-14 21:00N 55°24' W 161°36'0 0.0 170 / 4967.7 -3.3-9.0 2.1
2017-Feb-14 20:55N 55°24' W 161°36'3 3.7 170 / 4 -3.3 2.1
2017-Feb-14 20:00N 55°24' W 161°42'351.1 120 / 8967.5 -3.5-9.1 3.1
2017-Feb-14 19:56N 55°24' W 161°36'9 9.7 100 / 8 -3.5 3.1
2017-Feb-14 19:00N 55°18' W 161°48'7103.6 270 / 14967.3 -4.2-9.5 3.0
2017-Feb-14 18:56N 55°12' W 161°42'7 7.3 270 / 15 -4.0 3.0
2017-Feb-14 18:00N 55°12' W 161°54'0 0.0 230 / 8967.3 -4.7-9.7 3.1
2017-Feb-14 17:57N 55°12' W 161°54'0 0.0 230 / 5 -4.9 3.1
2017-Feb-14 17:00N 55°12' W 161°54'0 0.0 210 / 8967.1 -4.9-9.8 3.2
2017-Feb-14 16:58N 55°12' W 161°54'0 0.0 210 / 6 -5.0 3.2
2017-Feb-14 16:00N 55°12' W 161°54'0 0.0 210 / 8966.7 -4.9-9.6 3.1
2017-Feb-14 15:59N 55°12' W 161°54'0 0.0 220 / 11 -4.8 3.1
2017-Feb-14 15:00N 55°12' W 161°54'0 0.0 290 / 5 -4.8 3.1
2017-Feb-14 14:00N 55°12' W 161°54'0 0.0 290 / 8967.1 -4.9-9.8 3.1
2017-Feb-14 13:00N 55°12' W 161°54'0 0.0 320 / 17967.2 -5.2-10.1 3.1
2017-Feb-14 12:40N 55°12' W 161°54'0 0.0 300 / 13 -5.0 3.1
2017-Feb-14 12:00N 55°12' W 161°54'0 0.0 290 / 9967.9 -4.9-10.1 3.2
2017-Feb-14 11:41N 55°12' W 161°54'0 0.0 310 / 15 -5.1 3.2
2017-Feb-14 11:00N 55°12' W 161°54'0 0.0 310 / 20968.0 -5.3-9.2 3.2
2017-Feb-14 10:41N 55°12' W 161°54'0 0.0 320 / 17 -5.5 3.2
2017-Feb-14 10:00N 55°12' W 161°54'0 0.0 320 / 21968.2 -5.6-9.8 3.2
2017-Feb-14 09:42N 55°12' W 161°54'0 0.0 330 / 17 -5.6 3.2
2017-Feb-14 09:00N 55°12' W 161°54'0 0.0 310 / 10968.6 -5.4-9.8 3.3
2017-Feb-14 08:42N 55°12' W 161°54'0 0.0 310 / 23 -5.6 3.2
2017-Feb-14 08:00N 55°12' W 161°54'0 0.0 310 / 17968.8 -5.6-10.7 3.2
2017-Feb-14 07:43N 55°12' W 161°54'0 0.0 310 / 21 -5.5 3.2
2017-Feb-14 07:00N 55°12' W 161°54'0 0.0 310 / 21969.0 -5.4-10.3 3.2
2017-Feb-14 06:44N 55°12' W 161°54'0 0.0 310 / 18 -5.6 3.2
2017-Feb-14 06:00N 55°12' W 161°54'0 0.0 310 / 21969.0 -5.4-10.2 3.1
2017-Feb-14 05:44N 55°12' W 161°54'0 0.0 310 / 18 -5.4 3.1
2017-Feb-14 05:00N 55°12' W 161°54'0 0.0 310 / 20969.1 -5.6-10.4 3.1
2017-Feb-14 04:45N 55°12' W 161°54'0 0.0 300 / 20 -5.5 3.1
2017-Feb-14 04:00N 55°12' W 161°54'0 0.0 330 / 15969.2 -5.3-11.0 3.1
2017-Feb-14 03:46N 55°12' W 161°54'0 0.0 330 / 20 -5.4 3.1
2017-Feb-14 03:00N 55°12' W 161°54'0 0.0 320 / 18969.3 -5.5-10.6 3.1
2017-Feb-14 02:47N 55°12' W 161°54'7 8.8 320 / 18 -5.5 3.0
2017-Feb-14 02:00N 55°18' W 161°48'731.9 140 / 9968.4 -3.7-10.6 3.2
2017-Feb-14 01:47N 55°12' W 161°42'6 7.7 070 / 11 -3.4 3.2
2017-Feb-14 01:00N 55°18' W 161°42'0 0.0 240 / 3968.4 -2.3-11.0 3.2
2017-Feb-14 00:48N 55°18' W 161°42'3 4.3 230 / 6 -1.9 3.2
2017-Feb-14 00:00N 55°18' W 161°48'3 3.4 140 / 11968.6 -3.4-10.8 3.2
2017-Feb-13 23:00N 55°18' W 161°42'320.5 300 / 4968.8 -3.4-10.8 3.1
2017-Feb-13 22:50N 55°18' W 161°36'3 4.1 340 / 9 -3.5 3.1
2017-Feb-13 22:00N 55°18' W 161°42'320.5 360 / 17969.4 -3.0-9.7 3.0
2017-Feb-13 21:50N 55°18' W 161°36'7 8.3 360 / 18 -3.4 3.1
2017-Feb-13 21:00N 55°12' W 161°42'0 0.0 340 / 9969.7 -4.2-11.8 3.1
2017-Feb-13 20:51N 55°12' W 161°42'0 0.0 030 / 4 -4.0 3.1
2017-Feb-13 20:00N 55°12' W 161°42'645.0 230 / 8970.4 -4.7-10.3 3.1
2017-Feb-13 19:52N 55°06' W 161°42'1213.7 030 / 23 -4.5 3.1
2017-Feb-13 19:00N 55°12' W 162°00'329.4 330 / 24970.6 -6.5-11.9 2.8
2017-Feb-13 18:53N 55°12' W 161°54'0 0.0 300 / 14 -6.1 2.8
2017-Feb-13 18:00N 55°12' W 161°54'0 0.0 310 / 21970.4 -6.8-11.9 3.1
2017-Feb-13 17:54N 55°12' W 161°54'3 3.8 320 / 20 -6.4 3.1
2017-Feb-13 17:00N 55°12' W 162°00'334.2 340 / 14970.5 -6.7-11.5 3.0
2017-Feb-13 16:54N 55°12' W 161°54'0 0.0 340 / 14 -6.7 3.0
2017-Feb-13 16:00N 55°12' W 161°54'0 0.0 320 / 26970.2 -6.0-10.2 3.0
2017-Feb-13 15:55N 55°12' W 161°54'0 0.0 320 / 26 -6.0 3.0
2017-Feb-13 15:00N 55°12' W 161°54'0 0.0 310 / 27970.1 -6.7-10.3 3.1
2017-Feb-13 14:56N 55°12' W 161°54'3 3.7 330 / 26 -6.4 3.1
2017-Feb-13 14:00N 55°12' W 162°00'368.5 330 / 22970.6 -5.9-10.4 3.0
2017-Feb-13 13:57N 55°12' W 161°54'0 0.0 310 / 14 -6.4 3.0
2017-Feb-13 13:00N 55°12' W 161°54'0 0.0 330 / 34969.6 -6.7-10.4 3.1
2017-Feb-13 12:57N 55°12' W 161°54'3 3.6 340 / 34 -6.8 3.1
2017-Feb-13 12:00N 55°12' W 162°00'3102.7 350 / 30970.7 -6.5-10.2 3.0
2017-Feb-13 11:58N 55°12' W 161°54'3 3.5 340 / 27 -6.3 3.0
2017-Feb-13 11:00N 55°12' W 162°00'3205.5 340 / 36970.8 -6.2-10.1 3.0
2017-Feb-13 10:59N 55°12' W 161°54'0 0.0 340 / 30 -6.2 3.0
2017-Feb-13 10:00N 55°12' W 161°54'0 0.0 350 / 23972.0 -6.4-10.6 3.1
2017-Feb-13 09:38N 55°12' W 161°54'3 5.4 330 / 31 -5.8 3.1
2017-Feb-13 09:00N 55°12' W 162°00'3 9.8 330 / 26972.8 -5.0-9.3 3.0
2017-Feb-13 08:39N 55°12' W 161°54'0 0.0 360 / 25 -6.5 3.0
2017-Feb-13 08:00N 55°12' W 161°54'0 0.0 340 / 25973.0 -6.6-10.7 3.0
2017-Feb-13 07:40N 55°12' W 161°54'3 5.1 330 / 27 -6.2 3.0
2017-Feb-13 07:00N 55°12' W 162°00'310.8 340 / 37972.7 -5.8-11.3 3.0
2017-Feb-13 06:41N 55°12' W 161°54'0 0.0 350 / 39 -6.4 3.1
2017-Feb-13 06:00N 55°12' W 161°54'0 0.0 330 / 30973.5 -6.9-11.5 3.0
2017-Feb-13 05:41N 55°12' W 161°54'3 5.0 330 / 28 -6.8 3.1
2017-Feb-13 05:00N 55°12' W 162°00'311.4 975.2 -7.7-12.6 3.0
2017-Feb-13 04:42N 55°12' W 161°54'3 4.9 320 / 41 -6.8 3.0
2017-Feb-13 04:00N 55°12' W 162°00'312.1 350 / 29974.8 -7.5-11.6 3.0
2017-Feb-13 03:43N 55°12' W 161°54'0 0.0 340 / 37 -6.7 3.0
2017-Feb-13 03:00N 55°12' W 161°54'0 0.0 340 / 23975.9 -8.3-13.3 3.1
2017-Feb-13 02:44N 55°12' W 161°54'6 8.2 330 / 29 -8.0 3.1
2017-Feb-13 02:00N 55°06' W 161°54'0 0.0 030 / 39976.0 -7.1-11.0 3.1
2017-Feb-13 01:44N 55°06' W 161°54'7 9.4 350 / 25 -6.3 3.1
2017-Feb-13 01:00N 55°00' W 162°00'0 0.0 020 / 33976.6 -6.5-10.9 3.3
2017-Feb-13 00:45N 55°00' W 162°00'1013.8 360 / 26 -5.0 3.3
2017-Feb-13 00:00N 55°00' W 162°18'9 9.1 300 / 11978.5 -5.4-14.1 3.1
2017-Feb-12 23:00N 54°54' W 162°30'1010.4 340 / 40978.4 -6.7-10.6 3.1
2017-Feb-12 22:00N 54°54' W 162°48'627.7 020 / 35980.1 -6.5-12.0 2.5
2017-Feb-12 21:47N 54°48' W 162°48'1417.7 360 / 12 -5.1 2.6
2017-Feb-12 21:00N 55°00' W 163°00'734.6 010 / 42980.6 -7.4-11.8 3.0
2017-Feb-12 20:48N 54°54' W 162°54'3 4.3 010 / 41 -6.9 3.0
2017-Feb-12 20:00N 54°54' W 163°00'318.8 340 / 36981.5 -7.2-13.2 3.0
2017-Feb-12 19:49N 54°54' W 162°54'7 8.5 350 / 39 -7.1 3.0
2017-Feb-12 19:00N 55°00' W 163°00'636.0 360 / 24983.5 -6.4-9.9 3.5
2017-Feb-12 18:50N 54°54' W 163°00'6 7.2 350 / 18 -7.3 3.2
2017-Feb-12 18:00N 55°00' W 163°00'320.6 020 / 31983.6 -6.9-10.8 3.4
2017-Feb-12 17:50N 55°00' W 162°54'6 7.2 020 / 29 -6.8 3.5
2017-Feb-12 17:00N 54°54' W 162°54'0 0.0 340 / 34983.8 -6.2-10.5 2.9
2017-Feb-12 16:51N 54°54' W 162°54'7 8.1 340 / 33 -5.9 3.0
2017-Feb-12 16:00N 54°48' W 163°00'0 0.0 360 / 29985.0 -5.4-9.3 3.0
2017-Feb-12 15:52N 54°48' W 163°00'7 8.0 360 / 31 -5.6 2.8
2017-Feb-12 15:00N 54°54' W 163°06'651.4 985.8 -6.3-10.7 3.0
2017-Feb-12 14:53N 54°48' W 163°06'0 0.0 360 / 20 -6.1 3.0
2017-Feb-12 14:00N 54°48' W 163°06'0 0.0 360 / 20986.5 -6.3-10.3 3.0
2017-Feb-12 13:54N 54°48' W 163°06'0 0.0 360 / 20 -6.3 3.0
2017-Feb-12 13:00N 54°48' W 163°06'0 0.0 010 / 21987.2 -6.2-11.0 2.9
2017-Feb-12 12:54N 54°48' W 163°06'3 3.8 010 / 21 -6.2 3.0
2017-Feb-12 12:00N 54°48' W 163°12'783.1 010 / 27987.9 -5.7-9.4 2.9
2017-Feb-12 11:55N 54°42' W 163°06'1011.3 010 / 26 -5.6 2.9
2017-Feb-12 11:00N 54°42' W 162°48'0 0.0 030 / 24988.6 -6.0-10.1 3.1
2017-Feb-12 10:56N 54°42' W 162°48'9 9.8 020 / 24 -5.8 3.1
2017-Feb-12 10:00N 54°36' W 162°36'0 0.0 080 / 11988.9 -5.7-11.4 3.8
2017-Feb-12 09:57N 54°36' W 162°36'1212.7 060 / 15 -5.7 3.8
2017-Feb-12 09:00N 54°30' W 162°18'0 0.0 040 / 13989.4 -6.0-11.0 4.3
2017-Feb-12 08:57N 54°30' W 162°18'0 0.0 030 / 18 -6.0 4.3
2017-Feb-12 06:00N 54°30' W 162°18'9 9.2 030 / 16989.9 -5.2-10.1 4.3
2017-Feb-12 05:00N 54°36' W 162°30'0 0.0 050 / 14990.0 -5.7-10.1 4.0
2017-Feb-12 04:39N 54°36' W 162°30'914.1 360 / 22 -4.9 3.8
2017-Feb-12 04:00N 54°42' W 162°42'0 0.0 010 / 23990.2 -6.3-9.8 3.3
2017-Feb-12 03:40N 54°42' W 162°42'3 5.2 020 / 25 -6.5 3.3
2017-Feb-12 03:00N 54°42' W 162°36'0 0.0 010 / 22990.1 -6.0-9.8 3.7
2017-Feb-12 02:40N 54°42' W 162°36'710.4 010 / 24 -6.1 3.4
2017-Feb-12 02:00N 54°42' W 162°48'929.0 020 / 25990.4 -5.7-9.8 3.7
2017-Feb-12 01:41N 54°36' W 162°36'0 0.0 020 / 23 -5.7 3.7
2017-Feb-12 01:00N 54°36' W 162°36'0 0.0 990.6 -5.1-10.0 4.0
2017-Feb-12 00:42N 54°36' W 162°36'3 5.0 360 / 17 -5.4 3.8
2017-Feb-12 00:00N 54°36' W 162°30'3 3.5 050 / 19991.4 -5.4-9.9 3.8
2017-Feb-11 23:00N 54°36' W 162°24'621.2 030 / 18991.8 -5.5-10.0 4.2
2017-Feb-11 22:43N 54°30' W 162°24'1216.8 040 / 21 -5.9 4.0
2017-Feb-11 22:00N 54°36' W 162°42'622.5 020 / 24991.9 -5.1-9.4 4.0
2017-Feb-11 21:44N 54°30' W 162°42'6 8.2 020 / 22 -5.4 4.1
2017-Feb-11 21:00N 54°36' W 162°42'727.7 992.6 -5.3-9.6 4.1
2017-Feb-11 20:45N 54°30' W 162°36'3 4.6 020 / 27 -5.5 4.0
2017-Feb-11 20:00N 54°30' W 162°30'0 0.0 010 / 17992.4 -5.4-10.9 4.2
2017-Feb-11 19:46N 54°30' W 162°30'0 0.0 360 / 17 -5.1 4.1
2017-Feb-11 19:00N 54°30' W 162°30'729.7 992.3 -5.6-10.4 4.1
2017-Feb-11 18:46N 54°24' W 162°24'6 7.8 030 / 13 -5.1 4.1
2017-Feb-11 18:00N 54°30' W 162°24'316.1 992.0 -5.5-10.0 4.1
2017-Feb-11 17:47N 54°30' W 162°18'6 7.7 360 / 11 -5.7 4.3
2017-Feb-11 17:00N 54°24' W 162°18'0 0.0 010 / 9992.0 -5.6-10.7 4.3
2017-Feb-11 16:48N 54°24' W 162°18'1417.3 020 / 10 -5.6 4.3
2017-Feb-11 16:00N 54°36' W 162°06'737.8 020 / 26992.1 -6.0-9.5 4.3
2017-Feb-11 15:49N 54°30' W 162°00'1214.7 030 / 28 -5.6 4.4
2017-Feb-11 15:00N 54°36' W 161°42'0 0.0 020 / 27991.8 -5.9-9.2 4.5
2017-Feb-11 14:49N 54°36' W 161°42'1214.7 020 / 31 -5.8 4.4
2017-Feb-11 14:00N 54°42' W 161°24'320.8 010 / 23992.1 -6.1-9.9 4.5
2017-Feb-11 13:50N 54°42' W 161°18'911.0 010 / 24 -6.5 4.6
2017-Feb-11 13:00N 54°48' W 161°06'323.1 010 / 25992.4 -6.9-10.5 4.4
2017-Feb-11 12:51N 54°48' W 161°00'910.8 010 / 27 -6.8 4.4
2017-Feb-11 12:00N 54°54' W 160°48'325.9 010 / 19992.6 -8.0-12.3 4.6
2017-Feb-11 11:52N 54°54' W 160°42'910.5 010 / 19 -7.9 4.6
2017-Feb-11 11:00N 55°00' W 160°30'0 0.0 010 / 15992.6 -8.4-13.3 4.8
2017-Feb-11 10:53N 55°00' W 160°30'0 0.0 010 / 12 -8.4 4.8
2017-Feb-11 10:00N 55°00' W 160°30'329.5 360 / 18993.0 -8.0-12.5 4.8
2017-Feb-11 09:53N 55°00' W 160°24'3 3.9 010 / 18 -8.1 4.7
2017-Feb-11 09:00N 55°00' W 160°30'660.0 010 / 19993.3 -7.5-11.5 4.6
2017-Feb-11 08:54N 54°54' W 160°30'7 7.7 360 / 17 -7.5 4.6
2017-Feb-11 08:00N 55°00' W 160°24'0 0.0 993.6 -7.4-11.3 4.8
2017-Feb-11 07:55N 55°00' W 160°24'7 7.5 360 / 23 -7.2 4.8
2017-Feb-11 07:00N 55°06' W 160°18'690.0 360 / 20993.8 -7.9-11.5 4.8
2017-Feb-11 06:56N 55°00' W 160°18'6 6.4 360 / 18 -7.7 4.8
2017-Feb-11 06:00N 55°06' W 160°18'351.5 010 / 22993.6 -7.7-11.4 4.8
2017-Feb-11 05:56N 55°06' W 160°12'1616.9 010 / 23 -7.8 4.8
2017-Feb-11 05:00N 55°18' W 160°30'7138.1 360 / 21994.4 -9.4-14.2 4.5
2017-Feb-11 04:57N 55°12' W 160°24'7 7.2 350 / 23 -9.4 4.5
2017-Feb-11 04:00N 55°12' W 160°12'3102.7 010 / 26993.2 -8.1-11.5 4.7
2017-Feb-11 03:58N 55°12' W 160°06'7 7.1 360 / 22 -8.5 4.7
2017-Feb-11 03:00N 55°18' W 160°12'3204.9 350 / 23994.0 -8.8-12.6 4.5
2017-Feb-11 02:59N 55°18' W 160°06'3 3.5 340 / 26 -8.9 4.5
2017-Feb-11 02:00N 55°18' W 160°12'6 6.0 340 / 25994.3 -8.8-12.6 4.7
2017-Feb-11 01:00N 55°12' W 160°12'0 0.0 350 / 27994.3 -7.6-11.6 4.7
2017-Feb-11 00:39N 55°12' W 160°12'6 9.2 360 / 23 -8.4 4.7
2017-Feb-11 00:00N 55°18' W 160°12'6 6.0 360 / 30994.9 -8.3-12.4 4.6
2017-Feb-10 23:00N 55°24' W 160°12'618.0 340 / 25995.6 -7.8-12.3 4.8
2017-Feb-10 22:40N 55°18' W 160°12'1522.4 320 / 20 -7.6 4.8
2017-Feb-10 22:00N 55°24' W 160°36'310.8 350 / 29996.7 -7.6-11.8 4.6
2017-Feb-10 21:41N 55°24' W 160°30'3 5.0 360 / 29 -7.9 4.6
2017-Feb-10 21:00N 55°24' W 160°36'311.4 010 / 18997.3 -8.2-12.8 4.7
2017-Feb-10 20:42N 55°24' W 160°30'3 4.9 350 / 19 -8.5 4.7
2017-Feb-10 20:00N 55°24' W 160°36'312.0 350 / 29997.4 -7.9-12.3 4.5
2017-Feb-10 19:43N 55°24' W 160°30'6 8.4 340 / 31 -7.0 4.5
2017-Feb-10 19:00N 55°30' W 160°30'621.2 340 / 23997.8 -7.4-11.4 4.7
2017-Feb-10 18:43N 55°24' W 160°30'3 4.8 340 / 30 -7.4 4.6
2017-Feb-10 18:00N 55°24' W 160°24'312.8 340 / 22997.4 -7.0-10.9 4.7
2017-Feb-10 17:44N 55°24' W 160°18'6 8.2 340 / 19 -6.7 4.7
2017-Feb-10 17:00N 55°30' W 160°18'624.0 350 / 18998.0 -6.7-10.3 4.6
2017-Feb-10 16:45N 55°24' W 160°18'6 8.0 350 / 28 -5.8 4.5
2017-Feb-10 16:00N 55°30' W 160°18'0 0.0 340 / 25998.2 -5.4-9.1 4.5
2017-Feb-10 15:46N 55°30' W 160°18'7 9.0 340 / 27 -5.9 4.5
2017-Feb-10 15:00N 55°36' W 160°24'731.8 330 / 29998.2 -6.0-10.1 4.4
2017-Feb-10 14:47N 55°30' W 160°18'0 0.0 350 / 29 -5.7 4.3
2017-Feb-10 14:00N 55°30' W 160°18'315.7 340 / 26999.2 -5.8-9.5 4.5
2017-Feb-10 13:47N 55°30' W 160°12'6 7.7 340 / 27 -5.6 4.5
2017-Feb-10 13:00N 55°36' W 160°12'316.9 320 / 31998.7 -5.8-10.2 4.6
2017-Feb-10 12:48N 55°36' W 160°06'0 0.0 320 / 29 -6.2 4.5
2017-Feb-10 12:00N 55°36' W 160°06'318.5 320 / 27998.6 -4.9-9.8 4.6
2017-Feb-10 11:49N 55°36' W 160°00'7 8.4 350 / 8 -4.3 4.6
2017-Feb-10 11:00N 55°30' W 160°06'0 0.0 330 / 321000.0 -5.1-8.8 4.7
2017-Feb-10 10:50N 55°30' W 160°06'7 8.3 320 / 34 -5.2 4.7
2017-Feb-10 10:00N 55°36' W 160°00'640.0 330 / 16100.0 -3.7-10.2 4.6
2017-Feb-10 09:51N 55°30' W 160°00'0 0.0 290 / 7 -3.4 4.6
2017-Feb-10 09:00N 55°30' W 160°00'322.7 360 / 211000.0 -3.7-9.8 4.7
2017-Feb-10 08:51N 55°30' W 159°54'0 0.0 360 / 13 -3.5 4.7
2017-Feb-10 08:00N 55°30' W 159°54'0 0.0 340 / 111001.1 -3.5-9.4 4.7
2017-Feb-10 07:52N 55°30' W 159°54'7 8.0 350 / 8 -3.6 4.7
2017-Feb-10 07:00N 55°36' W 160°00'329.1 350 / 181001.6 -3.5-9.1 4.6
2017-Feb-10 06:53N 55°36' W 159°54'7 7.8 360 / 12 -3.5 4.6
2017-Feb-10 06:00N 55°30' W 160°00'334.0 310 / 241002.1 -3.7-8.9 4.7
2017-Feb-10 05:54N 55°30' W 159°54'1213.3 310 / 21 -3.5 4.7
2017-Feb-10 05:00N 55°42' W 159°54'0 0.0 330 / 241002.3 -4.0-8.8 4.5
2017-Feb-10 04:54N 55°42' W 159°54'0 0.0 330 / 25 -3.9 4.5
2017-Feb-10 04:00N 55°42' W 159°54'782.7 320 / 241002.8 -3.8-9.1 4.6
2017-Feb-10 03:55N 55°36' W 159°48'0 0.0 330 / 24 -4.0 4.6
2017-Feb-10 03:00N 55°36' W 159°48'0 0.0 320 / 181003.4 -3.4-10.1 4.6
2017-Feb-10 02:56N 55°36' W 159°48'6 6.4 330 / 18 -3.4 4.6
2017-Feb-10 02:00N 55°42' W 159°48'6120.0 320 / 211003.4 -3.0-9.0 4.6
2017-Feb-10 01:57N 55°36' W 159°48'1212.6 320 / 21 -2.8 4.6
2017-Feb-10 01:00N 55°48' W 159°48'0 0.0 300 / 241003.2 -4.1-10.1 4.8
2017-Feb-10 00:57N 55°48' W 159°48'3 3.6 320 / 27 -3.9 4.8
2017-Feb-10 00:00N 55°48' W 159°54'1413.8 300 / 231003.9 -3.3-8.7 4.8
2017-Feb-09 23:00N 55°36' W 159°42'0 0.0 350 / 151004.3 -3.0-8.2 5.0
2017-Feb-09 22:59N 55°36' W 159°42'9 9.2 340 / 19 -3.2 4.8
2017-Feb-09 22:00N 55°42' W 159°54'1212.0 330 / 251004.1 -4.2-9.3 4.6
2017-Feb-09 21:00N 55°30' W 159°54'617.1 310 / 261004.6 -3.5-7.5 4.7
2017-Feb-09 20:39N 55°24' W 159°54'0 0.0 300 / 34 -3.4 4.7
2017-Feb-09 20:00N 55°24' W 159°54'310.2 320 / 331005.5 -4.2-7.4 4.8
2017-Feb-09 19:40N 55°24' W 159°48'710.3 320 / 38 -3.5 4.7
2017-Feb-09 19:00N 55°30' W 159°42'310.7 310 / 261004.7 -3.9-8.9 4.7
2017-Feb-09 18:41N 55°30' W 159°36'6 8.8 330 / 19 -3.9 4.6
2017-Feb-09 18:00N 55°24' W 159°36'0 0.0 290 / 231006.1 -3.3-7.2 4.7
2017-Feb-09 17:41N 55°24' W 159°36'710.1 310 / 19 -3.5 4.7
2017-Feb-09 17:00N 55°18' W 159°42'620.0 290 / 271006.7 -3.6-7.5 4.8
2017-Feb-09 16:42N 55°12' W 159°42'7 9.9 320 / 33 -3.9 4.8
2017-Feb-09 16:00N 55°18' W 159°36'312.1 320 / 361005.9 -2.9-6.3 4.8
2017-Feb-09 15:43N 55°18' W 159°30'1217.4 310 / 29 -2.7 4.7
2017-Feb-09 15:00N 55°30' W 159°24'312.7 320 / 271005.6 -2.1-6.1 4.6
2017-Feb-09 14:44N 55°30' W 159°18'3 4.6 320 / 37 -2.6 4.6
2017-Feb-09 14:00N 55°30' W 159°12'0 0.0 280 / 241006.5 -2.1-6.3 4.6
2017-Feb-09 13:44N 55°30' W 159°12'7 9.4 300 / 25 -2.0 4.7
2017-Feb-09 13:00N 55°24' W 159°18'624.0 290 / 371006.0 -1.2-4.7 4.6
2017-Feb-09 12:45N 55°18' W 159°18'6 8.0 290 / 43 -1.1 4.7
2017-Feb-09 12:00N 55°12' W 159°18'0 0.0 290 / 311007.6 -1.0-5.6 4.9
2017-Feb-09 11:46N 55°12' W 159°18'0 0.0 310 / 36 -1.2 4.9
2017-Feb-09 11:00N 55°12' W 159°18'315.8 300 / 241008.6 -0.6-5.1 4.6
2017-Feb-09 10:47N 55°12' W 159°12'0 0.0 290 / 26 -0.6 4.6
2017-Feb-09 10:00N 55°12' W 159°12'0 0.0 290 / 281008.4 0.9-4.1 4.6
2017-Feb-09 09:48N 55°12' W 159°12'6 7.5 290 / 25 0.9 4.6
2017-Feb-09 09:00N 55°18' W 159°12'317.1 300 / 301007.8 1.6-0.9 4.7
2017-Feb-09 08:48N 55°18' W 159°06'1215.6 300 / 31 1.6 4.6
2017-Feb-09 08:00N 55°30' W 159°00'0 0.0 260 / 251008.0 3.3-0.6 4.6
2017-Feb-09 07:49N 55°30' W 159°00'6 7.3 250 / 25 3.3 4.6
2017-Feb-09 07:00N 55°24' W 159°00'636.0 240 / 171010.0 2.9-0.2 4.7
2017-Feb-09 06:50N 55°18' W 159°00'910.9 250 / 18 2.9 4.7
2017-Feb-09 06:00N 55°12' W 159°12'322.8 250 / 191011.4 2.9-0.1 4.6
2017-Feb-09 05:51N 55°12' W 159°06'910.7 240 / 16 2.9 4.6
2017-Feb-09 05:00N 55°18' W 158°54'645.0 260 / 121012.3 2.6-0.2 4.7
2017-Feb-09 04:52N 55°12' W 158°54'1415.9 250 / 14 2.6 4.7
2017-Feb-09 04:00N 55°24' W 158°42'0 0.0 260 / 151013.0 2.8-0.9 4.6
2017-Feb-09 03:53N 55°24' W 158°42'6 6.8 260 / 15 2.8 4.6
2017-Feb-09 03:00N 55°18' W 158°42'0 0.0 220 / 141014.2 2.8-0.4 4.6
2017-Feb-09 02:53N 55°18' W 158°42'910.3 220 / 13 2.8 4.7
2017-Feb-09 02:00N 55°12' W 158°54'769.1 300 / 91015.5 1.8-0.6 4.6
2017-Feb-09 01:54N 55°06' W 158°48'0 0.0 300 / 9 1.8 4.6
2017-Feb-09 01:00N 55°06' W 158°48'783.0 250 / 111016.1 2.6 0.2 4.7
2017-Feb-09 00:55N 55°00' W 158°42'1213.6 250 / 12 2.4 4.7
2017-Feb-09 00:00N 55°12' W 158°36'1413.8 280 / 111016.8 2.4-1.9 4.7
2017-Feb-08 23:00N 55°24' W 158°24'0 0.0 250 / 121017.1 2.4-1.5 4.6
2017-Feb-08 22:57N 55°24' W 158°24'6 6.3 260 / 11 2.6 4.6
2017-Feb-08 22:00N 55°18' W 158°24'6120.0 260 / 141018.2 2.6-0.9 4.7
2017-Feb-08 21:57N 55°12' W 158°24'9 9.6 270 / 13 2.6 4.7
2017-Feb-08 21:00N 55°06' W 158°36'6180.0 240 / 201018.9 2.5-0.5 4.7
2017-Feb-08 20:58N 55°00' W 158°36'0 0.0 240 / 19 2.4 4.7
2017-Feb-08 20:00N 55°00' W 158°36'0 0.0 290 / 121018.9 2.5-2.8 4.7
2017-Feb-08 19:59N 55°00' W 158°36'1515.3 290 / 11 2.7 4.7
2017-Feb-08 19:00N 55°06' W 158°12'1010.3 280 / 151018.9 1.6-0.2 4.7
2017-Feb-08 18:00N 55°06' W 157°54'315.8 260 / 121018.9 2.0 0.1 4.7
2017-Feb-08 17:47N 55°06' W 157°48'1215.2 260 / 10 1.7 4.7
2017-Feb-08 17:00N 55°12' W 157°30'317.1 260 / 141018.8 2.7-0.1 4.7
2017-Feb-08 16:48N 55°12' W 157°24'911.4 260 / 16 2.4 4.7
2017-Feb-08 16:00N 55°18' W 157°12'737.7 230 / 151019.3 2.8-0.5 4.7
2017-Feb-08 15:49N 55°12' W 157°06'1214.6 240 / 18 2.7 4.8
2017-Feb-08 15:00N 55°18' W 156°48'0 0.0 230 / 151019.8 1.8 0.1 4.7
2017-Feb-08 14:49N 55°18' W 156°48'1214.5 210 / 13 2.9 4.7
2017-Feb-08 14:00N 55°24' W 156°30'320.4 230 / 121020.2 2.8 0.8 4.7
2017-Feb-08 13:50N 55°24' W 156°24'1214.2 240 / 11 2.6 4.7
2017-Feb-08 13:00N 55°30' W 156°06'0 0.0 250 / 151020.4 3.1 0.4 4.7
2017-Feb-08 12:51N 55°30' W 156°06'1213.9 220 / 15 3.5 4.7
2017-Feb-08 12:00N 55°36' W 155°48'751.7 210 / 161020.9 3.8 0.6 5.5
2017-Feb-08 11:52N 55°30' W 155°42'1213.6 210 / 17 3.9 5.5
2017-Feb-08 11:00N 55°36' W 155°24'0 0.0 210 / 171021.0 3.8-0.3 5.5
2017-Feb-08 10:53N 55°36' W 155°24'1213.4 210 / 17 3.8 5.5
2017-Feb-08 10:00N 55°42' W 155°06'329.0 250 / 161021.1 3.1-0.3 5.5
2017-Feb-08 09:53N 55°42' W 155°00'910.2 240 / 17 3.1 5.5
2017-Feb-08 09:00N 55°48' W 154°48'333.7 210 / 161020.8 4.0-0.8 5.6
2017-Feb-08 08:54N 55°48' W 154°42'1415.3 210 / 16 4.0 5.6
2017-Feb-08 08:00N 56°00' W 154°30'672.0 230 / 151020.6 4.2-0.9 5.5
2017-Feb-08 07:55N 55°54' W 154°30'1415.0 230 / 15 4.2 5.5
2017-Feb-08 07:00N 56°06' W 154°18'350.2 220 / 151020.4 4.0-1.0 4.6
2017-Feb-08 06:56N 56°06' W 154°12'1414.7 220 / 14 4.0 4.6
2017-Feb-08 06:00N 56°18' W 154°00'6120.0 200 / 151020.6 3.4 0.1 5.0
2017-Feb-08 05:57N 56°12' W 154°00'1616.4 200 / 14 3.4 5.1
2017-Feb-08 05:00N 56°24' W 153°42'0 0.0 220 / 131020.7 3.7-0.4 4.7
2017-Feb-08 04:57N 56°24' W 153°42'1414.4 210 / 11 3.4 4.7
2017-Feb-08 04:00N 56°36' W 153°30'7205.5 240 / 121020.7 3.5 0.5 4.5
2017-Feb-08 03:58N 56°30' W 153°24'1414.2 230 / 15 3.4 4.5
2017-Feb-08 03:00N 56°42' W 153°12'0 0.0 210 / 91020.6 3.6-0.2 4.6
2017-Feb-08 02:59N 56°42' W 153°12'1615.8 210 / 10 3.7 4.6
2017-Feb-08 02:00N 56°54' W 152°54'9 8.9 270 / 101020.5 3.8 0.8 4.7
2017-Feb-08 01:00N 57°00' W 152°42'1515.5 250 / 121020.3 3.9-0.3 5.0
2017-Feb-08 00:00N 57°12' W 152°24'1111.4 220 / 111020.4 4.4-2.5 5.2
2017-Feb-07 23:00N 57°18' W 152°06'1212.4 240 / 121020.3 4.3-1.0 4.8
2017-Feb-07 22:00N 57°30' W 152°00'1212.4 240 / 71020.3 4.0 0.3 5.0
2017-Feb-07 21:00N 57°42' W 152°06'10 9.6 240 / 91020.3 3.6 0.1 5.1
2017-Feb-07 20:00N 57°42' W 152°24'6 6.0 220 / 51019.9 2.8-0.5 3.9
2017-Feb-07 19:00N 57°48' W 152°24'   220 / 21019.6 2.2-0.2 5.1
Track history (hours):
 
Tides and Currents Weather Stations Pressure Air Temp Water Temp Dewpoint Dewpoint Depression Visibility Wind Speed Wind Dir Waves Ship Positions

Oceanographic research ship Oscar Dyson (USA)

Ship's website: http://www.moc.noaa.gov/od/

Detailed information on ship capabilities available from University of Delaware's Ocean Information Center and ARCUS's ALIAS (Arctic Logistics Information and Support) project.

Last reported at 2017-Feb-16 16:00 UTC. Time now 2017-Feb-23 00:20 UTC.
Position N 57°42' W 152°24'.

Type: Ship. MMSI: 369959000.

Wind from 180 at 16 knots

Barometer 978.2 mb
Air temperature 2.4 ° C
Dewpoint -1.1 ° C
Water temperature 4.0 ° C

Date/timePositionNaut miles runAvg speedWind from/ knotsBaromVisibWave heightAir tempDewpointWater temp
2017-Feb-16 16:00N 57°42' W 152°24'311.3 180 / 16978.2 2.4-1.1 4.0
2017-Feb-16 15:43N 57°42' W 152°18'3 4.5 170 / 12 2.2 4.0
2017-Feb-16 15:00N 57°42' W 152°24'312.0 200 / 13977.9 2.2-1.2 4.0
2017-Feb-16 14:44N 57°42' W 152°18'3 4.4 200 / 17 2.2 4.1
2017-Feb-16 14:00N 57°42' W 152°24'312.0 200 / 14977.4 3.1-2.3 4.1
2017-Feb-16 13:44N 57°42' W 152°18'3 4.4 200 / 10 2.8 4.1
2017-Feb-16 13:00N 57°42' W 152°24'312.8 190 / 9977.2 1.8 0.9 4.2
2017-Feb-16 12:45N 57°42' W 152°18'3 4.3 190 / 11 1.6 4.1
2017-Feb-16 12:00N 57°42' W 152°24'313.7 170 / 13976.9 0.7-0.0 4.0
2017-Feb-16 11:46N 57°42' W 152°18'6 7.8 190 / 12 0.6 4.0
2017-Feb-16 11:00N 57°48' W 152°18'314.8 160 / 20977.0 0.8-0.0 4.6
2017-Feb-16 10:47N 57°48' W 152°12'7 8.7 180 / 17 0.9 4.6
2017-Feb-16 10:00N 57°54' W 152°18'315.9 140 / 31977.1 3.0 1.5 4.8
2017-Feb-16 09:48N 57°54' W 152°12'910.9 140 / 31 2.8 4.7
2017-Feb-16 09:00N 58°00' W 152°24'0 0.0 140 / 30976.6 2.8 1.0 4.6
2017-Feb-16 08:48N 58°00' W 152°24'6 7.9 130 / 33 2.9 4.6
2017-Feb-16 08:00N 58°00' W 152°36'632.7 130 / 31976.2 1.4 0.6 4.3
2017-Feb-16 07:49N 57°54' W 152°36'3 3.9 120 / 25 1.1 4.3
2017-Feb-16 07:00N 57°54' W 152°42'0 0.0 130 / 13977.3 1.0-0.3 4.2
2017-Feb-16 06:50N 57°54' W 152°42'1113.5 120 / 15 1.4 4.2
2017-Feb-16 06:00N 58°00' W 153°00'745.3 120 / 20976.6 1.6 0.2 4.0
2017-Feb-16 05:51N 57°54' W 152°54'1113.3 110 / 20 1.6 4.0
2017-Feb-16 05:00N 58°00' W 153°12'321.2 110 / 23976.4 1.2-0.8 4.2
2017-Feb-16 04:51N 58°00' W 153°06'1011.2 110 / 28 1.4 4.2
2017-Feb-16 04:00N 58°00' W 153°24'323.8 100 / 26975.8 1.2-0.1 4.3
2017-Feb-16 03:52N 58°00' W 153°18'1011.0 100 / 26 1.2 4.3
2017-Feb-16 03:00N 58°00' W 153°36'327.3 120 / 20975.8 1.3-1.4 4.5
2017-Feb-16 02:53N 58°00' W 153°30'1010.8 120 / 21 1.4 4.4
2017-Feb-16 02:00N 58°00' W 153°48'767.9 120 / 20975.6 1.3-2.2 3.5
2017-Feb-16 01:54N 57°54' W 153°42'6 7.1 120 / 20 1.3 3.6
2017-Feb-16 01:00N 57°54' W 153°54'338.3 120 / 15976.0 1.8-2.5 4.6
2017-Feb-16 00:55N 57°54' W 153°48'1112.3 120 / 15 1.8 4.6
2017-Feb-16 00:00N 57°48' W 154°06'1111.3 120 / 11975.4 2.1-3.2 4.6
2017-Feb-15 23:00N 57°42' W 154°24'690.0 090 / 16974.8 0.8-1.6 4.6
2017-Feb-15 22:56N 57°36' W 154°24'1112.2 090 / 16 1.0 4.6
2017-Feb-15 22:00N 57°30' W 154°42'0 0.0 120 / 11974.1 0.1-1.2 4.3
2017-Feb-15 21:57N 57°30' W 154°42'1112.0 120 / 9 -0.0 4.3
2017-Feb-15 21:00N 57°24' W 155°00'0 0.0 150 / 27972.5 1.5-0.8 4.8
2017-Feb-15 20:58N 57°24' W 155°00'1111.8 160 / 28 1.5 4.9
2017-Feb-15 20:00N 57°18' W 155°18'6180.0 160 / 20971.9 1.0-2.1 4.5
2017-Feb-15 19:58N 57°12' W 155°18'1111.9 160 / 27 0.5 4.6
2017-Feb-15 19:00N 57°06' W 155°36'3195.5 160 / 11971.4 -0.6-2.2 4.5
2017-Feb-15 18:59N 57°06' W 155°30'1111.7 160 / 9 -0.4 4.5
2017-Feb-15 18:00N 57°00' W 155°48'1615.5 170 / 17970.6 0.5-2.2 4.3
2017-Feb-15 17:00N 56°48' W 156°06'0 0.0 150 / 10970.1 -0.4-2.5 4.3
2017-Feb-15 16:39N 56°48' W 156°06'1217.8 150 / 10 -0.7 4.3
2017-Feb-15 16:00N 56°42' W 156°24'618.0 150 / 9969.7 -2.1-3.5 4.1
2017-Feb-15 15:40N 56°36' W 156°24'1014.9 130 / 13 -1.3 4.1
2017-Feb-15 15:00N 56°36' W 156°42'618.9 160 / 13969.2 -0.1-5.4 4.1
2017-Feb-15 14:41N 56°30' W 156°42'1217.0 150 / 9 -0.2 4.3
2017-Feb-15 14:00N 56°24' W 157°00'0 0.0 150 / 10969.1 -0.2-5.0 4.1
2017-Feb-15 13:41N 56°24' W 157°00'1217.0 170 / 13 -0.2 4.1
2017-Feb-15 13:00N 56°18' W 157°18'620.0 180 / 16968.7 -0.5-4.2 4.1
2017-Feb-15 12:42N 56°12' W 157°18'1014.3 170 / 17 -0.9 4.1
2017-Feb-15 12:00N 56°12' W 157°36'621.2 200 / 14968.2 -2.0-3.3 4.5
2017-Feb-15 11:43N 56°06' W 157°36'1014.0 210 / 14 -2.7 4.1
2017-Feb-15 11:00N 56°06' W 157°54'622.5 130 / 2968.2 -1.8-4.3 4.1
2017-Feb-15 10:44N 56°00' W 157°54'1013.7 200 / 1 -1.9 4.1
2017-Feb-15 10:00N 56°00' W 158°12'624.0 160 / 8968.3 -1.4-6.0 4.1
2017-Feb-15 09:45N 55°54' W 158°12'1215.7 140 / 10 -1.3 4.1
2017-Feb-15 09:00N 55°48' W 158°30'0 0.0 140 / 12968.4 -1.1-6.4 4.1
2017-Feb-15 08:45N 55°48' W 158°30'1215.7 140 / 14 -1.1 4.1
2017-Feb-15 08:00N 55°42' W 158°48'0 0.0 210 / 8968.6 -1.5-5.6 4.1
2017-Feb-15 07:46N 55°42' W 158°48'1013.2 150 / 3 -1.7 4.0
2017-Feb-15 07:00N 55°42' W 159°06'627.7 150 / 12968.4 -2.1-5.6 4.1
2017-Feb-15 06:47N 55°36' W 159°06'1417.3 160 / 13 -1.6 4.1
2017-Feb-15 06:00N 55°36' W 159°30'630.0 270 / 6968.2 -3.2-5.2 4.1
2017-Feb-15 05:48N 55°30' W 159°30'1012.7 280 / 6 -3.7 4.1
2017-Feb-15 05:00N 55°30' W 159°48'0 0.0 130 / 5967.9 -1.8-8.9 4.1
2017-Feb-15 04:48N 55°30' W 159°48'1417.0 160 / 10 -1.7 4.3
2017-Feb-15 04:00N 55°30' W 160°12'0 0.0 140 / 7967.7 -2.1-7.4 4.3
2017-Feb-15 03:49N 55°30' W 160°12'1214.5 180 / 5 -2.2 4.3
2017-Feb-15 03:00N 55°24' W 160°30'0 0.0 210 / 3967.7 -3.5-6.8 4.5
2017-Feb-15 02:50N 55°24' W 160°30'1416.4 170 / 2 -3.4 4.4
2017-Feb-15 02:00N 55°24' W 160°54'746.0 180 / 4967.6 -2.9-8.4 4.1
2017-Feb-15 01:51N 55°18' W 160°48'1416.1 140 / 5 -2.8 4.1
2017-Feb-15 01:00N 55°18' W 161°12'0 0.0 210 / 4967.4 -2.9-10.6 4.0
2017-Feb-15 00:52N 55°18' W 161°12'1011.8 260 / 2 -3.0 4.0
2017-Feb-15 00:00N 55°18' W 161°30'9 9.1 220 / 6967.5 -2.8-8.6 2.7
2017-Feb-14 23:00N 55°24' W 161°42'759.2 210 / 4967.4 -2.7-8.5 2.9
2017-Feb-14 22:53N 55°18' W 161°36'7 7.8 200 / 4 -2.7 2.8
2017-Feb-14 22:00N 55°24' W 161°42'334.1 090 / 3967.7 -3.2-9.2 1.9
2017-Feb-14 21:54N 55°24' W 161°36'0 0.0 090 / 3 -3.3 2.0
2017-Feb-14 21:00N 55°24' W 161°36'0 0.0 170 / 4967.7 -3.3-9.0 2.1
2017-Feb-14 20:55N 55°24' W 161°36'3 3.7 170 / 4 -3.3 2.1
2017-Feb-14 20:00N 55°24' W 161°42'351.1 120 / 8967.5 -3.5-9.1 3.1
2017-Feb-14 19:56N 55°24' W 161°36'9 9.7 100 / 8 -3.5 3.1
2017-Feb-14 19:00N 55°18' W 161°48'7103.6 270 / 14967.3 -4.2-9.5 3.0
2017-Feb-14 18:56N 55°12' W 161°42'7 7.3 270 / 15 -4.0 3.0
2017-Feb-14 18:00N 55°12' W 161°54'0 0.0 230 / 8967.3 -4.7-9.7 3.1
2017-Feb-14 17:57N 55°12' W 161°54'0 0.0 230 / 5 -4.9 3.1
2017-Feb-14 17:00N 55°12' W 161°54'0 0.0 210 / 8967.1 -4.9-9.8 3.2
2017-Feb-14 16:58N 55°12' W 161°54'0 0.0 210 / 6 -5.0 3.2
2017-Feb-14 16:00N 55°12' W 161°54'0 0.0 210 / 8966.7 -4.9-9.6 3.1
2017-Feb-14 15:59N 55°12' W 161°54'0 0.0 220 / 11 -4.8 3.1
2017-Feb-14 15:00N 55°12' W 161°54'0 0.0 290 / 5 -4.8 3.1
2017-Feb-14 14:00N 55°12' W 161°54'0 0.0 290 / 8967.1 -4.9-9.8 3.1
2017-Feb-14 13:00N 55°12' W 161°54'0 0.0 320 / 17967.2 -5.2-10.1 3.1
2017-Feb-14 12:40N 55°12' W 161°54'0 0.0 300 / 13 -5.0 3.1
2017-Feb-14 12:00N 55°12' W 161°54'0 0.0 290 / 9967.9 -4.9-10.1 3.2
2017-Feb-14 11:41N 55°12' W 161°54'0 0.0 310 / 15 -5.1 3.2
2017-Feb-14 11:00N 55°12' W 161°54'0 0.0 310 / 20968.0 -5.3-9.2 3.2
2017-Feb-14 10:41N 55°12' W 161°54'0 0.0 320 / 17 -5.5 3.2
2017-Feb-14 10:00N 55°12' W 161°54'0 0.0 320 / 21968.2 -5.6-9.8 3.2
2017-Feb-14 09:42N 55°12' W 161°54'0 0.0 330 / 17 -5.6 3.2
2017-Feb-14 09:00N 55°12' W 161°54'0 0.0 310 / 10968.6 -5.4-9.8 3.3
2017-Feb-14 08:42N 55°12' W 161°54'0 0.0 310 / 23 -5.6 3.2
2017-Feb-14 08:00N 55°12' W 161°54'0 0.0 310 / 17968.8 -5.6-10.7 3.2
2017-Feb-14 07:43N 55°12' W 161°54'0 0.0 310 / 21 -5.5 3.2
2017-Feb-14 07:00N 55°12' W 161°54'0 0.0 310 / 21969.0 -5.4-10.3 3.2
2017-Feb-14 06:44N 55°12' W 161°54'0 0.0 310 / 18 -5.6 3.2
2017-Feb-14 06:00N 55°12' W 161°54'0 0.0 310 / 21969.0 -5.4-10.2 3.1
2017-Feb-14 05:44N 55°12' W 161°54'0 0.0 310 / 18 -5.4 3.1
2017-Feb-14 05:00N 55°12' W 161°54'0 0.0 310 / 20969.1 -5.6-10.4 3.1
2017-Feb-14 04:45N 55°12' W 161°54'0 0.0 300 / 20 -5.5 3.1
2017-Feb-14 04:00N 55°12' W 161°54'0 0.0 330 / 15969.2 -5.3-11.0 3.1
2017-Feb-14 03:46N 55°12' W 161°54'0 0.0 330 / 20 -5.4 3.1
2017-Feb-14 03:00N 55°12' W 161°54'0 0.0 320 / 18969.3 -5.5-10.6 3.1
2017-Feb-14 02:47N 55°12' W 161°54'7 8.8 320 / 18 -5.5 3.0
2017-Feb-14 02:00N 55°18' W 161°48'731.9 140 / 9968.4 -3.7-10.6 3.2
2017-Feb-14 01:47N 55°12' W 161°42'6 7.7 070 / 11 -3.4 3.2
2017-Feb-14 01:00N 55°18' W 161°42'0 0.0 240 / 3968.4 -2.3-11.0 3.2
2017-Feb-14 00:48N 55°18' W 161°42'3 4.3 230 / 6 -1.9 3.2
2017-Feb-14 00:00N 55°18' W 161°48'3 3.4 140 / 11968.6 -3.4-10.8 3.2
2017-Feb-13 23:00N 55°18' W 161°42'320.5 300 / 4968.8 -3.4-10.8 3.1
2017-Feb-13 22:50N 55°18' W 161°36'3 4.1 340 / 9 -3.5 3.1
2017-Feb-13 22:00N 55°18' W 161°42'320.5 360 / 17969.4 -3.0-9.7 3.0
2017-Feb-13 21:50N 55°18' W 161°36'7 8.3 360 / 18 -3.4 3.1
2017-Feb-13 21:00N 55°12' W 161°42'0 0.0 340 / 9969.7 -4.2-11.8 3.1
2017-Feb-13 20:51N 55°12' W 161°42'0 0.0 030 / 4 -4.0 3.1
2017-Feb-13 20:00N 55°12' W 161°42'645.0 230 / 8970.4 -4.7-10.3 3.1
2017-Feb-13 19:52N 55°06' W 161°42'1213.7 030 / 23 -4.5 3.1
2017-Feb-13 19:00N 55°12' W 162°00'329.4 330 / 24970.6 -6.5-11.9 2.8
2017-Feb-13 18:53N 55°12' W 161°54'0 0.0 300 / 14 -6.1 2.8
2017-Feb-13 18:00N 55°12' W 161°54'0 0.0 310 / 21970.4 -6.8-11.9 3.1
2017-Feb-13 17:54N 55°12' W 161°54'3 3.8 320 / 20 -6.4 3.1
2017-Feb-13 17:00N 55°12' W 162°00'334.2 340 / 14970.5 -6.7-11.5 3.0
2017-Feb-13 16:54N 55°12' W 161°54'0 0.0 340 / 14 -6.7 3.0
2017-Feb-13 16:00N 55°12' W 161°54'0 0.0 320 / 26970.2 -6.0-10.2 3.0
2017-Feb-13 15:55N 55°12' W 161°54'0 0.0 320 / 26 -6.0 3.0
2017-Feb-13 15:00N 55°12' W 161°54'0 0.0 310 / 27970.1 -6.7-10.3 3.1
2017-Feb-13 14:56N 55°12' W 161°54'3 3.7 330 / 26 -6.4 3.1
2017-Feb-13 14:00N 55°12' W 162°00'368.5 330 / 22970.6 -5.9-10.4 3.0
2017-Feb-13 13:57N 55°12' W 161°54'0 0.0 310 / 14 -6.4 3.0
2017-Feb-13 13:00N 55°12' W 161°54'0 0.0 330 / 34969.6 -6.7-10.4 3.1
2017-Feb-13 12:57N 55°12' W 161°54'3 3.6 340 / 34 -6.8 3.1
2017-Feb-13 12:00N 55°12' W 162°00'3102.7 350 / 30970.7 -6.5-10.2 3.0
2017-Feb-13 11:58N 55°12' W 161°54'3 3.5 340 / 27 -6.3 3.0
2017-Feb-13 11:00N 55°12' W 162°00'3205.5 340 / 36970.8 -6.2-10.1 3.0
2017-Feb-13 10:59N 55°12' W 161°54'0 0.0 340 / 30 -6.2 3.0
2017-Feb-13 10:00N 55°12' W 161°54'0 0.0 350 / 23972.0 -6.4-10.6 3.1
2017-Feb-13 09:38N 55°12' W 161°54'3 5.4 330 / 31 -5.8 3.1
2017-Feb-13 09:00N 55°12' W 162°00'3 9.8 330 / 26972.8 -5.0-9.3 3.0
2017-Feb-13 08:39N 55°12' W 161°54'0 0.0 360 / 25 -6.5 3.0
2017-Feb-13 08:00N 55°12' W 161°54'0 0.0 340 / 25973.0 -6.6-10.7 3.0
2017-Feb-13 07:40N 55°12' W 161°54'3 5.1 330 / 27 -6.2 3.0
2017-Feb-13 07:00N 55°12' W 162°00'310.8 340 / 37972.7 -5.8-11.3 3.0
2017-Feb-13 06:41N 55°12' W 161°54'0 0.0 350 / 39 -6.4 3.1
2017-Feb-13 06:00N 55°12' W 161°54'0 0.0 330 / 30973.5 -6.9-11.5 3.0
2017-Feb-13 05:41N 55°12' W 161°54'3 5.0 330 / 28 -6.8 3.1
2017-Feb-13 05:00N 55°12' W 162°00'311.4 975.2 -7.7-12.6 3.0
2017-Feb-13 04:42N 55°12' W 161°54'3 4.9 320 / 41 -6.8 3.0
2017-Feb-13 04:00N 55°12' W 162°00'312.1 350 / 29974.8 -7.5-11.6 3.0
2017-Feb-13 03:43N 55°12' W 161°54'0 0.0 340 / 37 -6.7 3.0
2017-Feb-13 03:00N 55°12' W 161°54'0 0.0 340 / 23975.9 -8.3-13.3 3.1
2017-Feb-13 02:44N 55°12' W 161°54'6 8.2 330 / 29 -8.0 3.1
2017-Feb-13 02:00N 55°06' W 161°54'0 0.0 030 / 39976.0 -7.1-11.0 3.1
2017-Feb-13 01:44N 55°06' W 161°54'7 9.4 350 / 25 -6.3 3.1
2017-Feb-13 01:00N 55°00' W 162°00'0 0.0 020 / 33976.6 -6.5-10.9 3.3
2017-Feb-13 00:45N 55°00' W 162°00'1013.8 360 / 26 -5.0 3.3
2017-Feb-13 00:00N 55°00' W 162°18'9 9.1 300 / 11978.5 -5.4-14.1 3.1
2017-Feb-12 23:00N 54°54' W 162°30'1010.4 340 / 40978.4 -6.7-10.6 3.1
2017-Feb-12 22:00N 54°54' W 162°48'627.7 020 / 35980.1 -6.5-12.0 2.5
2017-Feb-12 21:47N 54°48' W 162°48'1417.7 360 / 12 -5.1 2.6
2017-Feb-12 21:00N 55°00' W 163°00'734.6 010 / 42980.6 -7.4-11.8 3.0
2017-Feb-12 20:48N 54°54' W 162°54'3 4.3 010 / 41 -6.9 3.0
2017-Feb-12 20:00N 54°54' W 163°00'318.8 340 / 36981.5 -7.2-13.2 3.0
2017-Feb-12 19:49N 54°54' W 162°54'7 8.5 350 / 39 -7.1 3.0
2017-Feb-12 19:00N 55°00' W 163°00'636.0 360 / 24983.5 -6.4-9.9 3.5
2017-Feb-12 18:50N 54°54' W 163°00'6 7.2 350 / 18 -7.3 3.2
2017-Feb-12 18:00N 55°00' W 163°00'320.6 020 / 31983.6 -6.9-10.8 3.4
2017-Feb-12 17:50N 55°00' W 162°54'6 7.2 020 / 29 -6.8 3.5
2017-Feb-12 17:00N 54°54' W 162°54'0 0.0 340 / 34983.8 -6.2-10.5 2.9
2017-Feb-12 16:51N 54°54' W 162°54'7 8.1 340 / 33 -5.9 3.0
2017-Feb-12 16:00N 54°48' W 163°00'0 0.0 360 / 29985.0 -5.4-9.3 3.0
2017-Feb-12 15:52N 54°48' W 163°00'7 8.0 360 / 31 -5.6 2.8
2017-Feb-12 15:00N 54°54' W 163°06'651.4 985.8 -6.3-10.7 3.0
2017-Feb-12 14:53N 54°48' W 163°06'0 0.0 360 / 20 -6.1 3.0
2017-Feb-12 14:00N 54°48' W 163°06'0 0.0 360 / 20986.5 -6.3-10.3 3.0
2017-Feb-12 13:54N 54°48' W 163°06'0 0.0 360 / 20 -6.3 3.0
2017-Feb-12 13:00N 54°48' W 163°06'0 0.0 010 / 21987.2 -6.2-11.0 2.9
2017-Feb-12 12:54N 54°48' W 163°06'3 3.8 010 / 21 -6.2 3.0
2017-Feb-12 12:00N 54°48' W 163°12'783.1 010 / 27987.9 -5.7-9.4 2.9
2017-Feb-12 11:55N 54°42' W 163°06'1011.3 010 / 26 -5.6 2.9
2017-Feb-12 11:00N 54°42' W 162°48'0 0.0 030 / 24988.6 -6.0-10.1 3.1
2017-Feb-12 10:56N 54°42' W 162°48'9 9.8 020 / 24 -5.8 3.1
2017-Feb-12 10:00N 54°36' W 162°36'0 0.0 080 / 11988.9 -5.7-11.4 3.8
2017-Feb-12 09:57N 54°36' W 162°36'1212.7 060 / 15 -5.7 3.8
2017-Feb-12 09:00N 54°30' W 162°18'0 0.0 040 / 13989.4 -6.0-11.0 4.3
2017-Feb-12 08:57N 54°30' W 162°18'0 0.0 030 / 18 -6.0 4.3
2017-Feb-12 06:00N 54°30' W 162°18'9 9.2 030 / 16989.9 -5.2-10.1 4.3
2017-Feb-12 05:00N 54°36' W 162°30'0 0.0 050 / 14990.0 -5.7-10.1 4.0
2017-Feb-12 04:39N 54°36' W 162°30'914.1 360 / 22 -4.9 3.8
2017-Feb-12 04:00N 54°42' W 162°42'0 0.0 010 / 23990.2 -6.3-9.8 3.3
2017-Feb-12 03:40N 54°42' W 162°42'3 5.2 020 / 25 -6.5 3.3
2017-Feb-12 03:00N 54°42' W 162°36'0 0.0 010 / 22990.1 -6.0-9.8 3.7
2017-Feb-12 02:40N 54°42' W 162°36'710.4 010 / 24 -6.1 3.4
2017-Feb-12 02:00N 54°42' W 162°48'929.0 020 / 25990.4 -5.7-9.8 3.7
2017-Feb-12 01:41N 54°36' W 162°36'0 0.0 020 / 23 -5.7 3.7
2017-Feb-12 01:00N 54°36' W 162°36'0 0.0 990.6 -5.1-10.0 4.0
2017-Feb-12 00:42N 54°36' W 162°36'3 5.0 360 / 17 -5.4 3.8
2017-Feb-12 00:00N 54°36' W 162°30'3 3.5 050 / 19991.4 -5.4-9.9 3.8
2017-Feb-11 23:00N 54°36' W 162°24'621.2 030 / 18991.8 -5.5-10.0 4.2
2017-Feb-11 22:43N 54°30' W 162°24'1216.8 040 / 21 -5.9 4.0
2017-Feb-11 22:00N 54°36' W 162°42'622.5 020 / 24991.9 -5.1-9.4 4.0
2017-Feb-11 21:44N 54°30' W 162°42'6 8.2 020 / 22 -5.4 4.1
2017-Feb-11 21:00N 54°36' W 162°42'727.7 992.6 -5.3-9.6 4.1
2017-Feb-11 20:45N 54°30' W 162°36'3 4.6 020 / 27 -5.5 4.0
2017-Feb-11 20:00N 54°30' W 162°30'0 0.0 010 / 17992.4 -5.4-10.9 4.2
2017-Feb-11 19:46N 54°30' W 162°30'0 0.0 360 / 17 -5.1 4.1
2017-Feb-11 19:00N 54°30' W 162°30'729.7 992.3 -5.6-10.4 4.1
2017-Feb-11 18:46N 54°24' W 162°24'6 7.8 030 / 13 -5.1 4.1
2017-Feb-11 18:00N 54°30' W 162°24'316.1 992.0 -5.5-10.0 4.1
2017-Feb-11 17:47N 54°30' W 162°18'6 7.7 360 / 11 -5.7 4.3
2017-Feb-11 17:00N 54°24' W 162°18'0 0.0 010 / 9992.0 -5.6-10.7 4.3
2017-Feb-11 16:48N 54°24' W 162°18'1417.3 020 / 10 -5.6 4.3
2017-Feb-11 16:00N 54°36' W 162°06'737.8 020 / 26992.1 -6.0-9.5 4.3
2017-Feb-11 15:49N 54°30' W 162°00'1214.7 030 / 28 -5.6 4.4
2017-Feb-11 15:00N 54°36' W 161°42'0 0.0 020 / 27991.8 -5.9-9.2 4.5
2017-Feb-11 14:49N 54°36' W 161°42'1214.7 020 / 31 -5.8 4.4
2017-Feb-11 14:00N 54°42' W 161°24'320.8 010 / 23992.1 -6.1-9.9 4.5
2017-Feb-11 13:50N 54°42' W 161°18'911.0 010 / 24 -6.5 4.6
2017-Feb-11 13:00N 54°48' W 161°06'323.1 010 / 25992.4 -6.9-10.5 4.4
2017-Feb-11 12:51N 54°48' W 161°00'910.8 010 / 27 -6.8 4.4
2017-Feb-11 12:00N 54°54' W 160°48'325.9 010 / 19992.6 -8.0-12.3 4.6
2017-Feb-11 11:52N 54°54' W 160°42'910.5 010 / 19 -7.9 4.6
2017-Feb-11 11:00N 55°00' W 160°30'0 0.0 010 / 15992.6 -8.4-13.3 4.8
2017-Feb-11 10:53N 55°00' W 160°30'0 0.0 010 / 12 -8.4 4.8
2017-Feb-11 10:00N 55°00' W 160°30'329.5 360 / 18993.0 -8.0-12.5 4.8
2017-Feb-11 09:53N 55°00' W 160°24'3 3.9 010 / 18 -8.1 4.7
2017-Feb-11 09:00N 55°00' W 160°30'660.0 010 / 19993.3 -7.5-11.5 4.6
2017-Feb-11 08:54N 54°54' W 160°30'7 7.7 360 / 17 -7.5 4.6
2017-Feb-11 08:00N 55°00' W 160°24'0 0.0 993.6 -7.4-11.3 4.8
2017-Feb-11 07:55N 55°00' W 160°24'7 7.5 360 / 23 -7.2 4.8
2017-Feb-11 07:00N 55°06' W 160°18'690.0 360 / 20993.8 -7.9-11.5 4.8
2017-Feb-11 06:56N 55°00' W 160°18'6 6.4 360 / 18 -7.7 4.8
2017-Feb-11 06:00N 55°06' W 160°18'351.5 010 / 22993.6 -7.7-11.4 4.8
2017-Feb-11 05:56N 55°06' W 160°12'1616.9 010 / 23 -7.8 4.8
2017-Feb-11 05:00N 55°18' W 160°30'7138.1 360 / 21994.4 -9.4-14.2 4.5
2017-Feb-11 04:57N 55°12' W 160°24'7 7.2 350 / 23 -9.4 4.5
2017-Feb-11 04:00N 55°12' W 160°12'3102.7 010 / 26993.2 -8.1-11.5 4.7
2017-Feb-11 03:58N 55°12' W 160°06'7 7.1 360 / 22 -8.5 4.7
2017-Feb-11 03:00N 55°18' W 160°12'3204.9 350 / 23994.0 -8.8-12.6 4.5
2017-Feb-11 02:59N 55°18' W 160°06'3 3.5 340 / 26 -8.9 4.5
2017-Feb-11 02:00N 55°18' W 160°12'6 6.0 340 / 25994.3 -8.8-12.6 4.7
2017-Feb-11 01:00N 55°12' W 160°12'0 0.0 350 / 27994.3 -7.6-11.6 4.7
2017-Feb-11 00:39N 55°12' W 160°12'6 9.2 360 / 23 -8.4 4.7
2017-Feb-11 00:00N 55°18' W 160°12'6 6.0 360 / 30994.9 -8.3-12.4 4.6
2017-Feb-10 23:00N 55°24' W 160°12'618.0 340 / 25995.6 -7.8-12.3 4.8
2017-Feb-10 22:40N 55°18' W 160°12'1522.4 320 / 20 -7.6 4.8
2017-Feb-10 22:00N 55°24' W 160°36'310.8 350 / 29996.7 -7.6-11.8 4.6
2017-Feb-10 21:41N 55°24' W 160°30'3 5.0 360 / 29 -7.9 4.6
2017-Feb-10 21:00N 55°24' W 160°36'311.4 010 / 18997.3 -8.2-12.8 4.7
2017-Feb-10 20:42N 55°24' W 160°30'3 4.9 350 / 19 -8.5 4.7
2017-Feb-10 20:00N 55°24' W 160°36'312.0 350 / 29997.4 -7.9-12.3 4.5
2017-Feb-10 19:43N 55°24' W 160°30'6 8.4 340 / 31 -7.0 4.5
2017-Feb-10 19:00N 55°30' W 160°30'621.2 340 / 23997.8 -7.4-11.4 4.7
2017-Feb-10 18:43N 55°24' W 160°30'3 4.8 340 / 30 -7.4 4.6
2017-Feb-10 18:00N 55°24' W 160°24'312.8 340 / 22997.4 -7.0-10.9 4.7
2017-Feb-10 17:44N 55°24' W 160°18'6 8.2 340 / 19 -6.7 4.7
2017-Feb-10 17:00N 55°30' W 160°18'624.0 350 / 18998.0 -6.7-10.3 4.6
2017-Feb-10 16:45N 55°24' W 160°18'6 8.0 350 / 28 -5.8 4.5
2017-Feb-10 16:00N 55°30' W 160°18'0 0.0 340 / 25998.2 -5.4-9.1 4.5
2017-Feb-10 15:46N 55°30' W 160°18'7 9.0 340 / 27 -5.9 4.5
2017-Feb-10 15:00N 55°36' W 160°24'731.8 330 / 29998.2 -6.0-10.1 4.4
2017-Feb-10 14:47N 55°30' W 160°18'0 0.0 350 / 29 -5.7 4.3
2017-Feb-10 14:00N 55°30' W 160°18'315.7 340 / 26999.2 -5.8-9.5 4.5
2017-Feb-10 13:47N 55°30' W 160°12'6 7.7 340 / 27 -5.6 4.5
2017-Feb-10 13:00N 55°36' W 160°12'316.9 320 / 31998.7 -5.8-10.2 4.6
2017-Feb-10 12:48N 55°36' W 160°06'0 0.0 320 / 29 -6.2 4.5
2017-Feb-10 12:00N 55°36' W 160°06'318.5 320 / 27998.6 -4.9-9.8 4.6
2017-Feb-10 11:49N 55°36' W 160°00'7 8.4 350 / 8 -4.3 4.6
2017-Feb-10 11:00N 55°30' W 160°06'0 0.0 330 / 321000.0 -5.1-8.8 4.7
2017-Feb-10 10:50N 55°30' W 160°06'7 8.3 320 / 34 -5.2 4.7
2017-Feb-10 10:00N 55°36' W 160°00'640.0 330 / 16100.0 -3.7-10.2 4.6
2017-Feb-10 09:51N 55°30' W 160°00'0 0.0 290 / 7 -3.4 4.6
2017-Feb-10 09:00N 55°30' W 160°00'322.7 360 / 211000.0 -3.7-9.8 4.7
2017-Feb-10 08:51N 55°30' W 159°54'0 0.0 360 / 13 -3.5 4.7
2017-Feb-10 08:00N 55°30' W 159°54'0 0.0 340 / 111001.1 -3.5-9.4 4.7
2017-Feb-10 07:52N 55°30' W 159°54'7 8.0 350 / 8 -3.6 4.7
2017-Feb-10 07:00N 55°36' W 160°00'329.1 350 / 181001.6 -3.5-9.1 4.6
2017-Feb-10 06:53N 55°36' W 159°54'7 7.8 360 / 12 -3.5 4.6
2017-Feb-10 06:00N 55°30' W 160°00'334.0 310 / 241002.1 -3.7-8.9 4.7
2017-Feb-10 05:54N 55°30' W 159°54'1213.3 310 / 21 -3.5 4.7
2017-Feb-10 05:00N 55°42' W 159°54'0 0.0 330 / 241002.3 -4.0-8.8 4.5
2017-Feb-10 04:54N 55°42' W 159°54'0 0.0 330 / 25 -3.9 4.5
2017-Feb-10 04:00N 55°42' W 159°54'782.7 320 / 241002.8 -3.8-9.1 4.6
2017-Feb-10 03:55N 55°36' W 159°48'0 0.0 330 / 24 -4.0 4.6
2017-Feb-10 03:00N 55°36' W 159°48'0 0.0 320 / 181003.4 -3.4-10.1 4.6
2017-Feb-10 02:56N 55°36' W 159°48'6 6.4 330 / 18 -3.4 4.6
2017-Feb-10 02:00N 55°42' W 159°48'6120.0 320 / 211003.4 -3.0-9.0 4.6
2017-Feb-10 01:57N 55°36' W 159°48'1212.6 320 / 21 -2.8 4.6
2017-Feb-10 01:00N 55°48' W 159°48'0 0.0 300 / 241003.2 -4.1-10.1 4.8
2017-Feb-10 00:57N 55°48' W 159°48'3 3.6 320 / 27 -3.9 4.8
2017-Feb-10 00:00N 55°48' W 159°54'1413.8 300 / 231003.9 -3.3-8.7 4.8
2017-Feb-09 23:00N 55°36' W 159°42'0 0.0 350 / 151004.3 -3.0-8.2 5.0
2017-Feb-09 22:59N 55°36' W 159°42'9 9.2 340 / 19 -3.2 4.8
2017-Feb-09 22:00N 55°42' W 159°54'1212.0 330 / 251004.1 -4.2-9.3 4.6
2017-Feb-09 21:00N 55°30' W 159°54'617.1 310 / 261004.6 -3.5-7.5 4.7
2017-Feb-09 20:39N 55°24' W 159°54'0 0.0 300 / 34 -3.4 4.7
2017-Feb-09 20:00N 55°24' W 159°54'310.2 320 / 331005.5 -4.2-7.4 4.8
2017-Feb-09 19:40N 55°24' W 159°48'710.3 320 / 38 -3.5 4.7
2017-Feb-09 19:00N 55°30' W 159°42'310.7 310 / 261004.7 -3.9-8.9 4.7
2017-Feb-09 18:41N 55°30' W 159°36'6 8.8 330 / 19 -3.9 4.6
2017-Feb-09 18:00N 55°24' W 159°36'0 0.0 290 / 231006.1 -3.3-7.2 4.7
2017-Feb-09 17:41N 55°24' W 159°36'710.1 310 / 19 -3.5 4.7
2017-Feb-09 17:00N 55°18' W 159°42'620.0 290 / 271006.7 -3.6-7.5 4.8
2017-Feb-09 16:42N 55°12' W 159°42'7 9.9 320 / 33 -3.9 4.8
2017-Feb-09 16:00N 55°18' W 159°36'312.1 320 / 361005.9 -2.9-6.3 4.8
2017-Feb-09 15:43N 55°18' W 159°30'1217.4 310 / 29 -2.7 4.7
2017-Feb-09 15:00N 55°30' W 159°24'312.7 320 / 271005.6 -2.1-6.1 4.6
2017-Feb-09 14:44N 55°30' W 159°18'3 4.6 320 / 37 -2.6 4.6
2017-Feb-09 14:00N 55°30' W 159°12'0 0.0 280 / 241006.5 -2.1-6.3 4.6
2017-Feb-09 13:44N 55°30' W 159°12'7 9.4 300 / 25 -2.0 4.7
2017-Feb-09 13:00N 55°24' W 159°18'624.0 290 / 371006.0 -1.2-4.7 4.6
2017-Feb-09 12:45N 55°18' W 159°18'6 8.0 290 / 43 -1.1 4.7
2017-Feb-09 12:00N 55°12' W 159°18'0 0.0 290 / 311007.6 -1.0-5.6 4.9
2017-Feb-09 11:46N 55°12' W 159°18'0 0.0 310 / 36 -1.2 4.9
2017-Feb-09 11:00N 55°12' W 159°18'315.8 300 / 241008.6 -0.6-5.1 4.6
2017-Feb-09 10:47N 55°12' W 159°12'0 0.0 290 / 26 -0.6 4.6
2017-Feb-09 10:00N 55°12' W 159°12'0 0.0 290 / 281008.4 0.9-4.1 4.6
2017-Feb-09 09:48N 55°12' W 159°12'6 7.5 290 / 25 0.9 4.6
2017-Feb-09 09:00N 55°18' W 159°12'317.1 300 / 301007.8 1.6-0.9 4.7
2017-Feb-09 08:48N 55°18' W 159°06'1215.6 300 / 31 1.6 4.6
2017-Feb-09 08:00N 55°30' W 159°00'0 0.0 260 / 251008.0 3.3-0.6 4.6
2017-Feb-09 07:49N 55°30' W 159°00'6 7.3 250 / 25 3.3 4.6
2017-Feb-09 07:00N 55°24' W 159°00'636.0 240 / 171010.0 2.9-0.2 4.7
2017-Feb-09 06:50N 55°18' W 159°00'910.9 250 / 18 2.9 4.7
2017-Feb-09 06:00N 55°12' W 159°12'322.8 250 / 191011.4 2.9-0.1 4.6
2017-Feb-09 05:51N 55°12' W 159°06'910.7 240 / 16 2.9 4.6
2017-Feb-09 05:00N 55°18' W 158°54'645.0 260 / 121012.3 2.6-0.2 4.7
2017-Feb-09 04:52N 55°12' W 158°54'1415.9 250 / 14 2.6 4.7
2017-Feb-09 04:00N 55°24' W 158°42'0 0.0 260 / 151013.0 2.8-0.9 4.6
2017-Feb-09 03:53N 55°24' W 158°42'6 6.8 260 / 15 2.8 4.6
2017-Feb-09 03:00N 55°18' W 158°42'0 0.0 220 / 141014.2 2.8-0.4 4.6
2017-Feb-09 02:53N 55°18' W 158°42'910.3 220 / 13 2.8 4.7
2017-Feb-09 02:00N 55°12' W 158°54'769.1 300 / 91015.5 1.8-0.6 4.6
2017-Feb-09 01:54N 55°06' W 158°48'0 0.0 300 / 9 1.8 4.6
2017-Feb-09 01:00N 55°06' W 158°48'783.0 250 / 111016.1 2.6 0.2 4.7
2017-Feb-09 00:55N 55°00' W 158°42'1213.6 250 / 12 2.4 4.7
2017-Feb-09 00:00N 55°12' W 158°36'1413.8 280 / 111016.8 2.4-1.9 4.7
2017-Feb-08 23:00N 55°24' W 158°24'0 0.0 250 / 121017.1 2.4-1.5 4.6
2017-Feb-08 22:57N 55°24' W 158°24'6 6.3 260 / 11 2.6 4.6
2017-Feb-08 22:00N 55°18' W 158°24'6120.0 260 / 141018.2 2.6-0.9 4.7
2017-Feb-08 21:57N 55°12' W 158°24'9 9.6 270 / 13 2.6 4.7
2017-Feb-08 21:00N 55°06' W 158°36'6180.0 240 / 201018.9 2.5-0.5 4.7
2017-Feb-08 20:58N 55°00' W 158°36'0 0.0 240 / 19 2.4 4.7
2017-Feb-08 20:00N 55°00' W 158°36'0 0.0 290 / 121018.9 2.5-2.8 4.7
2017-Feb-08 19:59N 55°00' W 158°36'1515.3 290 / 11 2.7 4.7
2017-Feb-08 19:00N 55°06' W 158°12'1010.3 280 / 151018.9 1.6-0.2 4.7
2017-Feb-08 18:00N 55°06' W 157°54'315.8 260 / 121018.9 2.0 0.1 4.7
2017-Feb-08 17:47N 55°06' W 157°48'1215.2 260 / 10 1.7 4.7
2017-Feb-08 17:00N 55°12' W 157°30'317.1 260 / 141018.8 2.7-0.1 4.7
2017-Feb-08 16:48N 55°12' W 157°24'911.4 260 / 16 2.4 4.7
2017-Feb-08 16:00N 55°18' W 157°12'737.7 230 / 151019.3 2.8-0.5 4.7
2017-Feb-08 15:49N 55°12' W 157°06'1214.6 240 / 18 2.7 4.8
2017-Feb-08 15:00N 55°18' W 156°48'0 0.0 230 / 151019.8 1.8 0.1 4.7
2017-Feb-08 14:49N 55°18' W 156°48'1214.5 210 / 13 2.9 4.7
2017-Feb-08 14:00N 55°24' W 156°30'320.4 230 / 121020.2 2.8 0.8 4.7
2017-Feb-08 13:50N 55°24' W 156°24'1214.2 240 / 11 2.6 4.7
2017-Feb-08 13:00N 55°30' W 156°06'0 0.0 250 / 151020.4 3.1 0.4 4.7
2017-Feb-08 12:51N 55°30' W 156°06'1213.9 220 / 15 3.5 4.7
2017-Feb-08 12:00N 55°36' W 155°48'751.7 210 / 161020.9 3.8 0.6 5.5
2017-Feb-08 11:52N 55°30' W 155°42'1213.6 210 / 17 3.9 5.5
2017-Feb-08 11:00N 55°36' W 155°24'0 0.0 210 / 171021.0 3.8-0.3 5.5
2017-Feb-08 10:53N 55°36' W 155°24'1213.4 210 / 17 3.8 5.5
2017-Feb-08 10:00N 55°42' W 155°06'329.0 250 / 161021.1 3.1-0.3 5.5
2017-Feb-08 09:53N 55°42' W 155°00'910.2 240 / 17 3.1 5.5
2017-Feb-08 09:00N 55°48' W 154°48'333.7 210 / 161020.8 4.0-0.8 5.6
2017-Feb-08 08:54N 55°48' W 154°42'1415.3 210 / 16 4.0 5.6
2017-Feb-08 08:00N 56°00' W 154°30'672.0 230 / 151020.6 4.2-0.9 5.5
2017-Feb-08 07:55N 55°54' W 154°30'1415.0 230 / 15 4.2 5.5
2017-Feb-08 07:00N 56°06' W 154°18'350.2 220 / 151020.4 4.0-1.0 4.6
2017-Feb-08 06:56N 56°06' W 154°12'1414.7 220 / 14 4.0 4.6
2017-Feb-08 06:00N 56°18' W 154°00'6120.0 200 / 151020.6 3.4 0.1 5.0
2017-Feb-08 05:57N 56°12' W 154°00'1616.4 200 / 14 3.4 5.1
2017-Feb-08 05:00N 56°24' W 153°42'0 0.0 220 / 131020.7 3.7-0.4 4.7
2017-Feb-08 04:57N 56°24' W 153°42'1414.4 210 / 11 3.4 4.7
2017-Feb-08 04:00N 56°36' W 153°30'7205.5 240 / 121020.7 3.5 0.5 4.5
2017-Feb-08 03:58N 56°30' W 153°24'1414.2 230 / 15 3.4 4.5
2017-Feb-08 03:00N 56°42' W 153°12'0 0.0 210 / 91020.6 3.6-0.2 4.6
2017-Feb-08 02:59N 56°42' W 153°12'1615.8 210 / 10 3.7 4.6
2017-Feb-08 02:00N 56°54' W 152°54'9 8.9 270 / 101020.5 3.8 0.8 4.7
2017-Feb-08 01:00N 57°00' W 152°42'1515.5 250 / 121020.3 3.9-0.3 5.0
2017-Feb-08 00:00N 57°12' W 152°24'1111.4 220 / 111020.4 4.4-2.5 5.2
2017-Feb-07 23:00N 57°18' W 152°06'1212.4 240 / 121020.3 4.3-1.0 4.8
2017-Feb-07 22:00N 57°30' W 152°00'1212.4 240 / 71020.3 4.0 0.3 5.0
2017-Feb-07 21:00N 57°42' W 152°06'10 9.6 240 / 91020.3 3.6 0.1 5.1
2017-Feb-07 20:00N 57°42' W 152°24'6 6.0 220 / 51019.9 2.8-0.5 3.9
2017-Feb-07 19:00N 57°48' W 152°24'   220 / 21019.6 2.2-0.2 5.1

Dump ship's entire track history